sensor_id;sensor_type;location;lat;lon;timestamp;P1;durP1;ratioP1;P2;durP2;ratioP2
75220;SDS011;63802;53.232;6.570;2022-12-18T00:01:03;58.97;;;16.42;;
75220;SDS011;63802;53.232;6.570;2022-12-18T00:03:34;62.47;;;16.77;;
75220;SDS011;63802;53.232;6.570;2022-12-18T00:06:00;57.33;;;17.73;;
75220;SDS011;63802;53.232;6.570;2022-12-18T00:08:26;72.72;;;17.92;;
75220;SDS011;63802;53.232;6.570;2022-12-18T00:10:51;67.95;;;16.75;;
75220;SDS011;63802;53.232;6.570;2022-12-18T00:13:17;64.47;;;17.15;;
75220;SDS011;63802;53.232;6.570;2022-12-18T00:15:43;53.22;;;15.68;;
75220;SDS011;63802;53.232;6.570;2022-12-18T00:18:08;62.47;;;18.02;;
75220;SDS011;63802;53.232;6.570;2022-12-18T00:20:38;67.30;;;17.60;;
75220;SDS011;63802;53.232;6.570;2022-12-18T00:23:05;63.67;;;16.23;;
75220;SDS011;63802;53.232;6.570;2022-12-18T00:25:34;60.35;;;14.70;;
75220;SDS011;63802;53.232;6.570;2022-12-18T00:28:01;63.03;;;16.52;;
75220;SDS011;63802;53.232;6.570;2022-12-18T00:30:27;73.97;;;17.67;;
75220;SDS011;63802;53.232;6.570;2022-12-18T00:32:54;58.50;;;15.55;;
75220;SDS011;63802;53.232;6.570;2022-12-18T00:35:19;66.97;;;17.45;;
75220;SDS011;63802;53.232;6.570;2022-12-18T00:37:45;59.25;;;14.80;;
75220;SDS011;63802;53.232;6.570;2022-12-18T00:40:11;53.67;;;14.75;;
75220;SDS011;63802;53.232;6.570;2022-12-18T00:42:37;69.60;;;16.38;;
75220;SDS011;63802;53.232;6.570;2022-12-18T00:45:24;55.17;;;14.45;;
75220;SDS011;63802;53.232;6.570;2022-12-18T00:47:51;56.40;;;16.52;;
75220;SDS011;63802;53.232;6.570;2022-12-18T00:50:17;58.28;;;15.80;;
75220;SDS011;63802;53.232;6.570;2022-12-18T00:52:43;63.70;;;16.52;;
75220;SDS011;63802;53.232;6.570;2022-12-18T00:55:08;48.70;;;14.15;;
75220;SDS011;63802;53.232;6.570;2022-12-18T00:57:34;56.20;;;16.20;;
75220;SDS011;63802;53.232;6.570;2022-12-18T01:00:00;58.00;;;15.30;;
75220;SDS011;63802;53.232;6.570;2022-12-18T01:02:26;52.45;;;15.18;;
75220;SDS011;63802;53.232;6.570;2022-12-18T01:04:52;55.85;;;15.57;;
75220;SDS011;63802;53.232;6.570;2022-12-18T01:07:18;54.22;;;13.00;;
75220;SDS011;63802;53.232;6.570;2022-12-18T01:09:43;54.67;;;15.63;;
75220;SDS011;63802;53.232;6.570;2022-12-18T01:12:09;58.90;;;15.75;;
75220;SDS011;63802;53.232;6.570;2022-12-18T01:14:34;59.40;;;15.38;;
75220;SDS011;63802;53.232;6.570;2022-12-18T01:16:59;58.17;;;15.38;;
75220;SDS011;63802;53.232;6.570;2022-12-18T01:19:27;62.05;;;17.30;;
75220;SDS011;63802;53.232;6.570;2022-12-18T01:21:53;55.15;;;14.27;;
75220;SDS011;63802;53.232;6.570;2022-12-18T01:24:18;53.58;;;17.30;;
75220;SDS011;63802;53.232;6.570;2022-12-18T01:26:44;51.28;;;14.57;;
75220;SDS011;63802;53.232;6.570;2022-12-18T01:29:09;62.47;;;18.30;;
75220;SDS011;63802;53.232;6.570;2022-12-18T01:31:34;60.17;;;15.43;;
75220;SDS011;63802;53.232;6.570;2022-12-18T01:34:00;49.35;;;13.60;;
75220;SDS011;63802;53.232;6.570;2022-12-18T01:36:27;60.17;;;17.80;;
75220;SDS011;63802;53.232;6.570;2022-12-18T01:38:54;44.05;;;13.68;;
75220;SDS011;63802;53.232;6.570;2022-12-18T01:41:21;67.25;;;15.10;;
75220;SDS011;63802;53.232;6.570;2022-12-18T01:43:50;60.13;;;16.48;;
75220;SDS011;63802;53.232;6.570;2022-12-18T01:46:25;57.70;;;15.07;;
75220;SDS011;63802;53.232;6.570;2022-12-18T01:48:59;63.35;;;15.73;;
75220;SDS011;63802;53.232;6.570;2022-12-18T01:51:26;63.67;;;17.00;;
75220;SDS011;63802;53.232;6.570;2022-12-18T01:53:53;53.35;;;15.98;;
75220;SDS011;63802;53.232;6.570;2022-12-18T01:56:20;59.00;;;15.60;;
75220;SDS011;63802;53.232;6.570;2022-12-18T01:59:00;49.08;;;13.93;;
75220;SDS011;63802;53.232;6.570;2022-12-18T02:01:28;59.95;;;15.88;;
75220;SDS011;63802;53.232;6.570;2022-12-18T02:03:55;44.67;;;13.30;;
75220;SDS011;63802;53.232;6.570;2022-12-18T02:06:42;49.17;;;13.98;;
75220;SDS011;63802;53.232;6.570;2022-12-18T02:09:10;52.90;;;14.77;;
75220;SDS011;63802;53.232;6.570;2022-12-18T02:12:13;49.53;;;14.73;;
75220;SDS011;63802;53.232;6.570;2022-12-18T02:25:25;48.85;;;15.77;;
75220;SDS011;63802;53.232;6.570;2022-12-18T02:27:53;55.42;;;15.15;;
75220;SDS011;63802;53.232;6.570;2022-12-18T02:30:21;50.95;;;14.75;;
75220;SDS011;63802;53.232;6.570;2022-12-18T02:32:50;41.83;;;12.80;;
75220;SDS011;63802;53.232;6.570;2022-12-18T02:35:22;62.03;;;14.35;;
75220;SDS011;63802;53.232;6.570;2022-12-18T02:37:53;48.15;;;15.45;;
75220;SDS011;63802;53.232;6.570;2022-12-18T02:40:19;51.50;;;15.60;;
75220;SDS011;63802;53.232;6.570;2022-12-18T02:42:46;55.88;;;14.55;;
75220;SDS011;63802;53.232;6.570;2022-12-18T02:45:12;63.80;;;14.32;;
75220;SDS011;63802;53.232;6.570;2022-12-18T02:47:38;65.18;;;15.35;;
75220;SDS011;63802;53.232;6.570;2022-12-18T02:50:18;54.50;;;15.50;;
75220;SDS011;63802;53.232;6.570;2022-12-18T02:53:17;50.03;;;14.95;;
75220;SDS011;63802;53.232;6.570;2022-12-18T02:56:02;58.95;;;15.70;;
75220;SDS011;63802;53.232;6.570;2022-12-18T03:01:11;50.35;;;12.55;;
75220;SDS011;63802;53.232;6.570;2022-12-18T03:06:28;60.65;;;15.23;;
75220;SDS011;63802;53.232;6.570;2022-12-18T03:08:58;66.82;;;16.48;;
75220;SDS011;63802;53.232;6.570;2022-12-18T03:11:28;44.15;;;13.95;;
75220;SDS011;63802;53.232;6.570;2022-12-18T03:14:14;44.42;;;13.60;;
75220;SDS011;63802;53.232;6.570;2022-12-18T03:16:41;46.03;;;15.73;;
75220;SDS011;63802;53.232;6.570;2022-12-18T03:19:10;69.57;;;17.48;;
75220;SDS011;63802;53.232;6.570;2022-12-18T03:21:47;48.78;;;14.43;;
75220;SDS011;63802;53.232;6.570;2022-12-18T03:24:15;58.00;;;18.77;;
75220;SDS011;63802;53.232;6.570;2022-12-18T03:26:44;51.35;;;14.57;;
75220;SDS011;63802;53.232;6.570;2022-12-18T03:29:14;60.28;;;15.80;;
75220;SDS011;63802;53.232;6.570;2022-12-18T03:31:46;41.35;;;15.15;;
75220;SDS011;63802;53.232;6.570;2022-12-18T03:34:22;60.33;;;16.08;;
75220;SDS011;63802;53.232;6.570;2022-12-18T03:36:51;75.13;;;16.90;;
75220;SDS011;63802;53.232;6.570;2022-12-18T03:39:17;61.15;;;17.35;;
75220;SDS011;63802;53.232;6.570;2022-12-18T03:41:43;61.50;;;15.93;;
75220;SDS011;63802;53.232;6.570;2022-12-18T03:44:23;64.70;;;15.80;;
75220;SDS011;63802;53.232;6.570;2022-12-18T03:46:56;61.83;;;15.88;;
75220;SDS011;63802;53.232;6.570;2022-12-18T03:49:35;52.10;;;14.15;;
75220;SDS011;63802;53.232;6.570;2022-12-18T03:52:30;49.15;;;16.00;;
75220;SDS011;63802;53.232;6.570;2022-12-18T03:55:17;54.78;;;14.13;;
75220;SDS011;63802;53.232;6.570;2022-12-18T03:57:44;66.47;;;15.90;;
75220;SDS011;63802;53.232;6.570;2022-12-18T04:00:13;48.45;;;15.65;;
75220;SDS011;63802;53.232;6.570;2022-12-18T04:02:45;49.92;;;16.60;;
75220;SDS011;63802;53.232;6.570;2022-12-18T04:05:15;42.38;;;14.88;;
75220;SDS011;63802;53.232;6.570;2022-12-18T04:07:42;53.42;;;15.90;;
75220;SDS011;63802;53.232;6.570;2022-12-18T04:10:13;55.65;;;14.98;;
75220;SDS011;63802;53.232;6.570;2022-12-18T04:12:41;48.97;;;15.75;;
75220;SDS011;63802;53.232;6.570;2022-12-18T04:15:07;49.00;;;17.55;;
75220;SDS011;63802;53.232;6.570;2022-12-18T04:17:33;49.83;;;14.75;;
75220;SDS011;63802;53.232;6.570;2022-12-18T04:19:59;48.53;;;16.50;;
75220;SDS011;63802;53.232;6.570;2022-12-18T04:22:24;48.72;;;15.07;;
75220;SDS011;63802;53.232;6.570;2022-12-18T04:24:50;52.28;;;16.85;;
75220;SDS011;63802;53.232;6.570;2022-12-18T04:27:15;42.38;;;13.25;;
75220;SDS011;63802;53.232;6.570;2022-12-18T04:29:40;60.95;;;16.83;;
75220;SDS011;63802;53.232;6.570;2022-12-18T04:32:06;45.25;;;14.60;;
75220;SDS011;63802;53.232;6.570;2022-12-18T04:34:32;51.78;;;14.93;;
75220;SDS011;63802;53.232;6.570;2022-12-18T04:36:57;45.22;;;13.38;;
75220;SDS011;63802;53.232;6.570;2022-12-18T04:39:23;50.25;;;15.63;;
75220;SDS011;63802;53.232;6.570;2022-12-18T04:41:48;37.85;;;14.30;;
75220;SDS011;63802;53.232;6.570;2022-12-18T04:44:14;53.40;;;17.08;;
75220;SDS011;63802;53.232;6.570;2022-12-18T04:46:39;45.97;;;15.40;;
75220;SDS011;63802;53.232;6.570;2022-12-18T04:49:05;53.00;;;16.15;;
75220;SDS011;63802;53.232;6.570;2022-12-18T04:51:30;42.08;;;13.82;;
75220;SDS011;63802;53.232;6.570;2022-12-18T04:53:55;43.58;;;13.75;;
75220;SDS011;63802;53.232;6.570;2022-12-18T04:56:21;43.53;;;12.55;;
75220;SDS011;63802;53.232;6.570;2022-12-18T04:58:46;47.15;;;13.45;;
75220;SDS011;63802;53.232;6.570;2022-12-18T05:01:13;48.35;;;14.18;;
75220;SDS011;63802;53.232;6.570;2022-12-18T05:03:39;54.47;;;15.05;;
75220;SDS011;63802;53.232;6.570;2022-12-18T05:06:06;50.58;;;14.95;;
75220;SDS011;63802;53.232;6.570;2022-12-18T05:08:32;43.83;;;14.55;;
75220;SDS011;63802;53.232;6.570;2022-12-18T05:11:01;51.22;;;13.23;;
75220;SDS011;63802;53.232;6.570;2022-12-18T05:13:35;40.10;;;14.52;;
75220;SDS011;63802;53.232;6.570;2022-12-18T05:16:01;44.58;;;14.13;;
75220;SDS011;63802;53.232;6.570;2022-12-18T05:18:27;40.15;;;13.63;;
75220;SDS011;63802;53.232;6.570;2022-12-18T05:20:53;48.00;;;12.73;;
75220;SDS011;63802;53.232;6.570;2022-12-18T05:23:19;42.70;;;13.68;;
75220;SDS011;63802;53.232;6.570;2022-12-18T05:25:53;51.47;;;13.75;;
75220;SDS011;63802;53.232;6.570;2022-12-18T05:28:21;48.70;;;14.60;;
75220;SDS011;63802;53.232;6.570;2022-12-18T05:30:50;38.10;;;14.57;;
75220;SDS011;63802;53.232;6.570;2022-12-18T05:35:43;39.10;;;13.38;;
75220;SDS011;63802;53.232;6.570;2022-12-18T05:38:08;39.65;;;14.40;;
75220;SDS011;63802;53.232;6.570;2022-12-18T05:40:34;27.88;;;11.55;;
75220;SDS011;63802;53.232;6.570;2022-12-18T05:42:59;41.17;;;14.00;;
75220;SDS011;63802;53.232;6.570;2022-12-18T05:45:25;41.47;;;12.57;;
75220;SDS011;63802;53.232;6.570;2022-12-18T05:47:50;37.97;;;11.90;;
75220;SDS011;63802;53.232;6.570;2022-12-18T05:50:15;41.38;;;13.60;;
75220;SDS011;63802;53.232;6.570;2022-12-18T05:52:41;37.40;;;13.02;;
75220;SDS011;63802;53.232;6.570;2022-12-18T05:55:06;37.53;;;13.13;;
75220;SDS011;63802;53.232;6.570;2022-12-18T05:57:32;44.20;;;12.30;;
75220;SDS011;63802;53.232;6.570;2022-12-18T05:59:58;28.10;;;12.27;;
75220;SDS011;63802;53.232;6.570;2022-12-18T06:02:23;40.72;;;11.35;;
75220;SDS011;63802;53.232;6.570;2022-12-18T06:04:48;34.65;;;10.88;;
75220;SDS011;63802;53.232;6.570;2022-12-18T06:07:14;29.58;;;11.68;;
75220;SDS011;63802;53.232;6.570;2022-12-18T06:09:39;30.80;;;10.93;;
75220;SDS011;63802;53.232;6.570;2022-12-18T06:12:05;38.15;;;11.95;;
75220;SDS011;63802;53.232;6.570;2022-12-18T06:14:32;32.47;;;11.45;;
75220;SDS011;63802;53.232;6.570;2022-12-18T06:16:57;37.25;;;12.10;;
75220;SDS011;63802;53.232;6.570;2022-12-18T06:19:22;36.08;;;11.88;;
75220;SDS011;63802;53.232;6.570;2022-12-18T06:21:48;39.83;;;13.38;;
75220;SDS011;63802;53.232;6.570;2022-12-18T06:24:14;29.38;;;10.25;;
75220;SDS011;63802;53.232;6.570;2022-12-18T06:26:39;29.95;;;11.60;;
75220;SDS011;63802;53.232;6.570;2022-12-18T06:29:06;44.60;;;11.98;;
75220;SDS011;63802;53.232;6.570;2022-12-18T06:31:31;43.67;;;11.70;;
75220;SDS011;63802;53.232;6.570;2022-12-18T06:33:56;29.17;;;10.18;;
75220;SDS011;63802;53.232;6.570;2022-12-18T06:36:22;36.03;;;11.05;;
75220;SDS011;63802;53.232;6.570;2022-12-18T06:38:48;31.60;;;10.90;;
75220;SDS011;63802;53.232;6.570;2022-12-18T06:41:15;34.13;;;10.43;;
75220;SDS011;63802;53.232;6.570;2022-12-18T06:43:42;38.10;;;9.75;;
75220;SDS011;63802;53.232;6.570;2022-12-18T06:46:08;34.42;;;10.68;;
75220;SDS011;63802;53.232;6.570;2022-12-18T06:48:33;44.10;;;11.27;;
75220;SDS011;63802;53.232;6.570;2022-12-18T06:50:59;29.15;;;10.73;;
75220;SDS011;63802;53.232;6.570;2022-12-18T06:53:25;34.80;;;11.27;;
75220;SDS011;63802;53.232;6.570;2022-12-18T06:55:50;27.00;;;9.82;;
75220;SDS011;63802;53.232;6.570;2022-12-18T06:58:16;34.97;;;10.88;;
75220;SDS011;63802;53.232;6.570;2022-12-18T07:00:42;23.67;;;10.45;;
75220;SDS011;63802;53.232;6.570;2022-12-18T07:03:07;34.10;;;9.57;;
75220;SDS011;63802;53.232;6.570;2022-12-18T07:05:33;33.38;;;9.48;;
75220;SDS011;63802;53.232;6.570;2022-12-18T07:07:58;25.60;;;9.18;;
75220;SDS011;63802;53.232;6.570;2022-12-18T07:10:24;27.73;;;9.52;;
75220;SDS011;63802;53.232;6.570;2022-12-18T07:12:50;31.73;;;9.85;;
75220;SDS011;63802;53.232;6.570;2022-12-18T07:15:15;31.20;;;10.27;;
75220;SDS011;63802;53.232;6.570;2022-12-18T07:17:41;25.58;;;9.50;;
75220;SDS011;63802;53.232;6.570;2022-12-18T07:20:07;26.10;;;8.85;;
75220;SDS011;63802;53.232;6.570;2022-12-18T07:22:32;27.95;;;10.10;;
75220;SDS011;63802;53.232;6.570;2022-12-18T07:24:58;24.08;;;9.63;;
75220;SDS011;63802;53.232;6.570;2022-12-18T07:27:23;27.95;;;10.88;;
75220;SDS011;63802;53.232;6.570;2022-12-18T07:29:49;23.75;;;8.68;;
75220;SDS011;63802;53.232;6.570;2022-12-18T07:32:14;22.35;;;8.13;;
75220;SDS011;63802;53.232;6.570;2022-12-18T07:34:40;26.00;;;8.77;;
75220;SDS011;63802;53.232;6.570;2022-12-18T07:37:06;24.67;;;9.40;;
75220;SDS011;63802;53.232;6.570;2022-12-18T07:39:31;24.75;;;10.63;;
75220;SDS011;63802;53.232;6.570;2022-12-18T07:41:57;21.80;;;8.85;;
75220;SDS011;63802;53.232;6.570;2022-12-18T07:44:42;25.05;;;9.23;;
75220;SDS011;63802;53.232;6.570;2022-12-18T07:47:08;23.25;;;10.50;;
75220;SDS011;63802;53.232;6.570;2022-12-18T07:49:34;23.42;;;8.98;;
75220;SDS011;63802;53.232;6.570;2022-12-18T07:51:59;23.08;;;9.50;;
75220;SDS011;63802;53.232;6.570;2022-12-18T07:54:25;25.13;;;9.18;;
75220;SDS011;63802;53.232;6.570;2022-12-18T07:56:50;21.80;;;9.60;;
75220;SDS011;63802;53.232;6.570;2022-12-18T07:59:16;29.15;;;10.32;;
75220;SDS011;63802;53.232;6.570;2022-12-18T08:01:41;25.38;;;8.75;;
75220;SDS011;63802;53.232;6.570;2022-12-18T08:04:07;21.55;;;9.32;;
75220;SDS011;63802;53.232;6.570;2022-12-18T08:06:32;21.63;;;8.05;;
75220;SDS011;63802;53.232;6.570;2022-12-18T08:08:58;19.20;;;8.55;;
75220;SDS011;63802;53.232;6.570;2022-12-18T08:11:24;20.58;;;9.20;;
75220;SDS011;63802;53.232;6.570;2022-12-18T08:13:51;19.77;;;9.10;;
75220;SDS011;63802;53.232;6.570;2022-12-18T08:16:17;18.02;;;7.70;;
75220;SDS011;63802;53.232;6.570;2022-12-18T08:18:43;22.42;;;9.60;;
75220;SDS011;63802;53.232;6.570;2022-12-18T08:21:13;19.27;;;8.25;;
75220;SDS011;63802;53.232;6.570;2022-12-18T08:23:47;23.87;;;9.07;;
75220;SDS011;63802;53.232;6.570;2022-12-18T08:26:14;24.15;;;8.50;;
75220;SDS011;63802;53.232;6.570;2022-12-18T08:28:40;25.73;;;9.07;;
75220;SDS011;63802;53.232;6.570;2022-12-18T08:31:07;23.67;;;9.65;;
75220;SDS011;63802;53.232;6.570;2022-12-18T08:33:33;25.05;;;9.30;;
75220;SDS011;63802;53.232;6.570;2022-12-18T08:35:59;22.65;;;10.02;;
75220;SDS011;63802;53.232;6.570;2022-12-18T08:38:24;30.90;;;11.38;;
75220;SDS011;63802;53.232;6.570;2022-12-18T08:40:57;21.25;;;7.95;;
75220;SDS011;63802;53.232;6.570;2022-12-18T08:43:27;18.88;;;7.47;;
75220;SDS011;63802;53.232;6.570;2022-12-18T08:46:11;23.88;;;7.78;;
75220;SDS011;63802;53.232;6.570;2022-12-18T08:48:37;24.42;;;8.00;;
75220;SDS011;63802;53.232;6.570;2022-12-18T08:51:02;19.35;;;9.00;;
75220;SDS011;63802;53.232;6.570;2022-12-18T08:53:28;30.70;;;10.85;;
75220;SDS011;63802;53.232;6.570;2022-12-18T08:55:53;21.77;;;9.63;;
75220;SDS011;63802;53.232;6.570;2022-12-18T08:58:21;24.35;;;8.68;;
75220;SDS011;63802;53.232;6.570;2022-12-18T09:00:46;31.08;;;9.93;;
75220;SDS011;63802;53.232;6.570;2022-12-18T09:03:15;19.25;;;8.52;;
75220;SDS011;63802;53.232;6.570;2022-12-18T09:05:42;24.40;;;9.00;;
75220;SDS011;63802;53.232;6.570;2022-12-18T09:08:10;22.13;;;8.38;;
75220;SDS011;63802;53.232;6.570;2022-12-18T09:10:41;26.00;;;8.48;;
75220;SDS011;63802;53.232;6.570;2022-12-18T09:13:08;23.63;;;8.48;;
75220;SDS011;63802;53.232;6.570;2022-12-18T09:15:39;17.58;;;7.43;;
75220;SDS011;63802;53.232;6.570;2022-12-18T09:18:12;30.45;;;10.35;;
75220;SDS011;63802;53.232;6.570;2022-12-18T09:20:38;29.98;;;9.63;;
75220;SDS011;63802;53.232;6.570;2022-12-18T09:23:04;19.17;;;8.13;;
75220;SDS011;63802;53.232;6.570;2022-12-18T09:25:31;30.05;;;8.40;;
75220;SDS011;63802;53.232;6.570;2022-12-18T09:28:19;20.17;;;8.02;;
75220;SDS011;63802;53.232;6.570;2022-12-18T09:30:48;15.68;;;7.03;;
75220;SDS011;63802;53.232;6.570;2022-12-18T09:33:14;27.80;;;9.18;;
75220;SDS011;63802;53.232;6.570;2022-12-18T09:35:41;23.52;;;8.25;;
75220;SDS011;63802;53.232;6.570;2022-12-18T09:38:08;25.65;;;9.43;;
75220;SDS011;63802;53.232;6.570;2022-12-18T09:40:40;22.00;;;7.43;;
75220;SDS011;63802;53.232;6.570;2022-12-18T09:43:57;23.23;;;9.02;;
75220;SDS011;63802;53.232;6.570;2022-12-18T09:46:06;18.38;;;7.43;;
75220;SDS011;63802;53.232;6.570;2022-12-18T09:48:36;17.55;;;8.05;;
75220;SDS011;63802;53.232;6.570;2022-12-18T09:51:14;21.10;;;7.45;;
75220;SDS011;63802;53.232;6.570;2022-12-18T09:53:42;16.58;;;6.63;;
75220;SDS011;63802;53.232;6.570;2022-12-18T09:56:14;17.95;;;7.72;;
75220;SDS011;63802;53.232;6.570;2022-12-18T09:58:45;17.92;;;7.85;;
75220;SDS011;63802;53.232;6.570;2022-12-18T10:01:15;20.40;;;6.78;;
75220;SDS011;63802;53.232;6.570;2022-12-18T10:03:45;23.40;;;8.13;;
75220;SDS011;63802;53.232;6.570;2022-12-18T10:06:26;18.02;;;7.78;;
75220;SDS011;63802;53.232;6.570;2022-12-18T10:08:58;19.13;;;7.50;;
75220;SDS011;63802;53.232;6.570;2022-12-18T10:11:41;17.05;;;7.65;;
75220;SDS011;63802;53.232;6.570;2022-12-18T10:14:16;14.10;;;5.88;;
75220;SDS011;63802;53.232;6.570;2022-12-18T10:16:59;16.55;;;7.22;;
75220;SDS011;63802;53.232;6.570;2022-12-18T10:27:56;18.27;;;6.47;;
75220;SDS011;63802;53.232;6.570;2022-12-18T10:30:25;18.73;;;6.43;;
75220;SDS011;63802;53.232;6.570;2022-12-18T10:32:51;18.50;;;6.55;;
75220;SDS011;63802;53.232;6.570;2022-12-18T10:35:18;16.17;;;6.78;;
75220;SDS011;63802;53.232;6.570;2022-12-18T10:38:21;14.50;;;6.18;;
75220;SDS011;63802;53.232;6.570;2022-12-18T10:43:20;14.75;;;5.85;;
75220;SDS011;63802;53.232;6.570;2022-12-18T10:48:39;17.02;;;5.72;;
75220;SDS011;63802;53.232;6.570;2022-12-18T10:51:23;16.10;;;6.22;;
75220;SDS011;63802;53.232;6.570;2022-12-18T10:54:31;16.08;;;6.82;;
75220;SDS011;63802;53.232;6.570;2022-12-18T10:56:46;14.48;;;5.18;;
75220;SDS011;63802;53.232;6.570;2022-12-18T10:59:13;12.30;;;5.85;;
75220;SDS011;63802;53.232;6.570;2022-12-18T11:04:36;14.65;;;5.63;;
75220;SDS011;63802;53.232;6.570;2022-12-18T11:07:14;12.13;;;5.95;;
75220;SDS011;63802;53.232;6.570;2022-12-18T11:09:39;13.88;;;4.85;;
75220;SDS011;63802;53.232;6.570;2022-12-18T11:12:08;13.63;;;5.20;;
75220;SDS011;63802;53.232;6.570;2022-12-18T11:14:42;10.48;;;4.80;;
75220;SDS011;63802;53.232;6.570;2022-12-18T11:20:00;16.13;;;4.55;;
75220;SDS011;63802;53.232;6.570;2022-12-18T11:22:34;13.63;;;4.55;;
75220;SDS011;63802;53.232;6.570;2022-12-18T11:27:28;10.05;;;4.97;;
75220;SDS011;63802;53.232;6.570;2022-12-18T11:30:07;10.10;;;4.55;;
75220;SDS011;63802;53.232;6.570;2022-12-18T11:32:54;12.32;;;4.75;;
75220;SDS011;63802;53.232;6.570;2022-12-18T11:35:42;10.32;;;4.60;;
75220;SDS011;63802;53.232;6.570;2022-12-18T11:38:29;10.10;;;4.63;;
75220;SDS011;63802;53.232;6.570;2022-12-18T11:41:00;10.15;;;4.85;;
75220;SDS011;63802;53.232;6.570;2022-12-18T11:43:47;9.77;;;4.72;;
75220;SDS011;63802;53.232;6.570;2022-12-18T11:46:18;7.85;;;4.10;;
75220;SDS011;63802;53.232;6.570;2022-12-18T11:48:57;10.35;;;4.85;;
75220;SDS011;63802;53.232;6.570;2022-12-18T11:51:33;9.63;;;4.55;;
75220;SDS011;63802;53.232;6.570;2022-12-18T11:54:12;11.70;;;4.32;;
75220;SDS011;63802;53.232;6.570;2022-12-18T11:56:45;9.73;;;4.95;;
75220;SDS011;63802;53.232;6.570;2022-12-18T12:07:27;14.48;;;4.68;;
75220;SDS011;63802;53.232;6.570;2022-12-18T12:12:57;11.13;;;4.53;;
75220;SDS011;63802;53.232;6.570;2022-12-18T12:21:28;11.15;;;4.55;;
75220;SDS011;63802;53.232;6.570;2022-12-18T12:24:10;10.00;;;4.22;;
75220;SDS011;63802;53.232;6.570;2022-12-18T12:29:48;9.10;;;4.15;;
75220;SDS011;63802;53.232;6.570;2022-12-18T12:32:57;10.70;;;4.45;;
75220;SDS011;63802;53.232;6.570;2022-12-18T12:41:12;8.82;;;4.18;;
75220;SDS011;63802;53.232;6.570;2022-12-18T12:44:00;9.30;;;4.40;;
75220;SDS011;63802;53.232;6.570;2022-12-18T12:46:29;9.20;;;4.03;;
75220;SDS011;63802;53.232;6.570;2022-12-18T12:48:58;9.00;;;3.60;;
75220;SDS011;63802;53.232;6.570;2022-12-18T12:51:28;9.40;;;4.10;;
75220;SDS011;63802;53.232;6.570;2022-12-18T12:53:57;9.88;;;4.03;;
75220;SDS011;63802;53.232;6.570;2022-12-18T12:56:26;12.40;;;4.22;;
75220;SDS011;63802;53.232;6.570;2022-12-18T13:07:35;10.30;;;3.75;;
75220;SDS011;63802;53.232;6.570;2022-12-18T13:12:36;9.85;;;3.60;;
75220;SDS011;63802;53.232;6.570;2022-12-18T13:15:21;9.65;;;3.60;;
75220;SDS011;63802;53.232;6.570;2022-12-18T13:18:06;9.27;;;3.55;;
75220;SDS011;63802;53.232;6.570;2022-12-18T13:20:36;8.57;;;3.58;;
75220;SDS011;63802;53.232;6.570;2022-12-18T13:25:48;8.15;;;3.42;;
75220;SDS011;63802;53.232;6.570;2022-12-18T13:31:01;8.50;;;3.80;;
75220;SDS011;63802;53.232;6.570;2022-12-18T13:36:00;6.13;;;3.40;;
75220;SDS011;63802;53.232;6.570;2022-12-18T13:38:39;10.57;;;3.42;;
75220;SDS011;63802;53.232;6.570;2022-12-18T13:43:52;8.10;;;3.95;;
75220;SDS011;63802;53.232;6.570;2022-12-18T13:48:58;8.45;;;3.13;;
75220;SDS011;63802;53.232;6.570;2022-12-18T13:51:27;9.15;;;3.95;;
75220;SDS011;63802;53.232;6.570;2022-12-18T13:56:44;8.23;;;3.75;;
75220;SDS011;63802;53.232;6.570;2022-12-18T14:01:48;8.52;;;3.42;;
75220;SDS011;63802;53.232;6.570;2022-12-18T14:04:25;7.32;;;3.67;;
75220;SDS011;63802;53.232;6.570;2022-12-18T14:09:28;9.00;;;3.22;;
75220;SDS011;63802;53.232;6.570;2022-12-18T14:11:56;7.80;;;3.35;;
75220;SDS011;63802;53.232;6.570;2022-12-18T14:14:43;13.60;;;4.07;;
75220;SDS011;63802;53.232;6.570;2022-12-18T14:17:12;8.82;;;3.95;;
75220;SDS011;63802;53.232;6.570;2022-12-18T14:19:43;8.68;;;3.95;;
75220;SDS011;63802;53.232;6.570;2022-12-18T14:22:15;9.70;;;4.32;;
75220;SDS011;63802;53.232;6.570;2022-12-18T14:24:42;8.68;;;3.67;;
75220;SDS011;63802;53.232;6.570;2022-12-18T14:27:22;8.38;;;3.63;;
75220;SDS011;63802;53.232;6.570;2022-12-18T14:29:50;8.50;;;3.92;;
75220;SDS011;63802;53.232;6.570;2022-12-18T14:32:16;11.60;;;3.88;;
75220;SDS011;63802;53.232;6.570;2022-12-18T14:34:48;8.23;;;3.95;;
75220;SDS011;63802;53.232;6.570;2022-12-18T14:37:23;9.80;;;4.28;;
75220;SDS011;63802;53.232;6.570;2022-12-18T14:39:53;7.95;;;3.92;;
75220;SDS011;63802;53.232;6.570;2022-12-18T14:42:26;8.90;;;4.13;;
75220;SDS011;63802;53.232;6.570;2022-12-18T14:47:56;10.50;;;4.20;;
75220;SDS011;63802;53.232;6.570;2022-12-18T14:50:21;9.32;;;3.17;;
75220;SDS011;63802;53.232;6.570;2022-12-18T14:52:47;8.02;;;3.60;;
75220;SDS011;63802;53.232;6.570;2022-12-18T14:55:19;10.05;;;4.35;;
75220;SDS011;63802;53.232;6.570;2022-12-18T14:57:48;9.27;;;4.05;;
75220;SDS011;63802;53.232;6.570;2022-12-18T15:00:18;10.95;;;4.75;;
75220;SDS011;63802;53.232;6.570;2022-12-18T15:02:46;10.50;;;3.88;;
75220;SDS011;63802;53.232;6.570;2022-12-18T15:05:19;10.48;;;4.15;;
75220;SDS011;63802;53.232;6.570;2022-12-18T15:07:54;11.82;;;4.35;;
75220;SDS011;63802;53.232;6.570;2022-12-18T15:10:25;11.25;;;4.43;;
75220;SDS011;63802;53.232;6.570;2022-12-18T15:18:02;11.98;;;4.32;;
75220;SDS011;63802;53.232;6.570;2022-12-18T15:20:50;13.07;;;4.75;;
75220;SDS011;63802;53.232;6.570;2022-12-18T15:23:19;8.15;;;4.20;;
75220;SDS011;63802;53.232;6.570;2022-12-18T15:25:54;13.77;;;4.80;;
75220;SDS011;63802;53.232;6.570;2022-12-18T15:30:59;16.67;;;5.85;;
75220;SDS011;63802;53.232;6.570;2022-12-18T15:33:31;16.77;;;6.15;;
75220;SDS011;63802;53.232;6.570;2022-12-18T15:36:03;14.45;;;6.40;;
75220;SDS011;63802;53.232;6.570;2022-12-18T15:38:31;22.75;;;7.15;;
75220;SDS011;63802;53.232;6.570;2022-12-18T15:40:57;21.92;;;5.53;;
75220;SDS011;63802;53.232;6.570;2022-12-18T15:43:23;9.27;;;4.68;;
75220;SDS011;63802;53.232;6.570;2022-12-18T15:45:58;13.85;;;6.28;;
75220;SDS011;63802;53.232;6.570;2022-12-18T15:48:24;10.52;;;5.25;;
75220;SDS011;63802;53.232;6.570;2022-12-18T15:50:50;12.18;;;5.50;;
75220;SDS011;63802;53.232;6.570;2022-12-18T15:53:18;13.18;;;5.70;;
75220;SDS011;63802;53.232;6.570;2022-12-18T15:55:44;15.60;;;5.53;;
75220;SDS011;63802;53.232;6.570;2022-12-18T15:58:28;10.95;;;5.38;;
75220;SDS011;63802;53.232;6.570;2022-12-18T16:00:54;12.73;;;5.38;;
75220;SDS011;63802;53.232;6.570;2022-12-18T16:03:21;12.38;;;5.32;;
75220;SDS011;63802;53.232;6.570;2022-12-18T16:05:47;10.93;;;4.93;;
75220;SDS011;63802;53.232;6.570;2022-12-18T16:08:12;11.23;;;4.85;;
75220;SDS011;63802;53.232;6.570;2022-12-18T16:10:37;14.82;;;5.65;;
75220;SDS011;63802;53.232;6.570;2022-12-18T16:13:03;12.00;;;6.15;;
75220;SDS011;63802;53.232;6.570;2022-12-18T16:15:29;15.20;;;5.95;;
75220;SDS011;63802;53.232;6.570;2022-12-18T16:17:54;12.20;;;4.88;;
75220;SDS011;63802;53.232;6.570;2022-12-18T16:20:20;15.60;;;6.07;;
75220;SDS011;63802;53.232;6.570;2022-12-18T16:22:47;13.35;;;5.07;;
75220;SDS011;63802;53.232;6.570;2022-12-18T16:25:16;11.20;;;5.45;;
75220;SDS011;63802;53.232;6.570;2022-12-18T16:27:49;11.23;;;4.78;;
75220;SDS011;63802;53.232;6.570;2022-12-18T16:30:16;12.07;;;5.68;;
75220;SDS011;63802;53.232;6.570;2022-12-18T16:32:44;13.52;;;5.63;;
75220;SDS011;63802;53.232;6.570;2022-12-18T16:35:10;12.82;;;4.95;;